<?xml version="1.0" encoding="UTF-8" standalone="no" ?>
<gpx xmlns="http://www.topografix.com/GPX/1/1" xmlns:xsi="http://www.w3.org/2001/XMLSchema-instance" xsi:schemaLocation="http://www.topografix.com/GPX/1/1 http://www.topografix.com/GPX/1/1/gpx.xsd" version="1.1" creator="VisuGPX - https://www.visugpx.com">
  <metadata>
    <name>Houdain</name>
    <desc><![CDATA[Randonnée accessible à tous.
]]></desc>
  </metadata>
  <trk>
    <name><![CDATA[HOUDAIN1412146:44 PM]]></name>
    <trkseg>
      <trkpt lat="50.31574" lon="3.78283">
        <ele>105.4</ele>
        <time>2014-12-14T07:57:27Z</time>
      </trkpt>
      <trkpt lat="50.31477" lon="3.78386">
        <ele>129.43</ele>
        <time>2014-12-14T08:03:18Z</time>
      </trkpt>
      <trkpt lat="50.3138" lon="3.7842">
        <ele>123.19</ele>
        <time>2014-12-14T08:04:45Z</time>
      </trkpt>
      <trkpt lat="50.31311" lon="3.78506">
        <ele>127.99</ele>
        <time>2014-12-14T08:06:01Z</time>
      </trkpt>
      <trkpt lat="50.31245" lon="3.78602">
        <ele>129.43</ele>
        <time>2014-12-14T08:07:22Z</time>
      </trkpt>
      <trkpt lat="50.31219" lon="3.78734">
        <ele>134.72</ele>
        <time>2014-12-14T08:08:40Z</time>
      </trkpt>
      <trkpt lat="50.31141" lon="3.78845">
        <ele>136.64</ele>
        <time>2014-12-14T08:10:12Z</time>
      </trkpt>
      <trkpt lat="50.31086" lon="3.78964">
        <ele>135.2</ele>
        <time>2014-12-14T08:12:12Z</time>
      </trkpt>
      <trkpt lat="50.31151" lon="3.79049">
        <ele>138.57</ele>
        <time>2014-12-14T08:13:29Z</time>
      </trkpt>
      <trkpt lat="50.31232" lon="3.79139">
        <ele>134.72</ele>
        <time>2014-12-14T08:14:50Z</time>
      </trkpt>
      <trkpt lat="50.31323" lon="3.79227">
        <ele>129.92</ele>
        <time>2014-12-14T08:16:18Z</time>
      </trkpt>
      <trkpt lat="50.31405" lon="3.79285">
        <ele>124.15</ele>
        <time>2014-12-14T08:17:29Z</time>
      </trkpt>
      <trkpt lat="50.31475" lon="3.79376">
        <ele>123.67</ele>
        <time>2014-12-14T08:18:51Z</time>
      </trkpt>
      <trkpt lat="50.31538" lon="3.79483">
        <ele>117.9</ele>
        <time>2014-12-14T08:20:15Z</time>
      </trkpt>
      <trkpt lat="50.3158" lon="3.79611">
        <ele>113.57</ele>
        <time>2014-12-14T08:21:36Z</time>
      </trkpt>
      <trkpt lat="50.3163" lon="3.79756">
        <ele>109.25</ele>
        <time>2014-12-14T08:23:03Z</time>
      </trkpt>
      <trkpt lat="50.31692" lon="3.7988">
        <ele>123.67</ele>
        <time>2014-12-14T08:24:52Z</time>
      </trkpt>
      <trkpt lat="50.31751" lon="3.80033">
        <ele>130.4</ele>
        <time>2014-12-14T08:26:39Z</time>
      </trkpt>
      <trkpt lat="50.31804" lon="3.80174">
        <ele>148.66</ele>
        <time>2014-12-14T08:28:20Z</time>
      </trkpt>
      <trkpt lat="50.31846" lon="3.80315">
        <ele>156.83</ele>
        <time>2014-12-14T08:29:45Z</time>
      </trkpt>
      <trkpt lat="50.31909" lon="3.8045">
        <ele>139.05</ele>
        <time>2014-12-14T08:31:07Z</time>
      </trkpt>
      <trkpt lat="50.3199" lon="3.8043">
        <ele>134.24</ele>
        <time>2014-12-14T08:32:36Z</time>
      </trkpt>
      <trkpt lat="50.32071" lon="3.80365">
        <ele>131.84</ele>
        <time>2014-12-14T08:33:54Z</time>
      </trkpt>
      <trkpt lat="50.32146" lon="3.80327">
        <ele>127.51</ele>
        <time>2014-12-14T08:35:03Z</time>
      </trkpt>
      <trkpt lat="50.32206" lon="3.80249">
        <ele>123.67</ele>
        <time>2014-12-14T08:36:13Z</time>
      </trkpt>
      <trkpt lat="50.32281" lon="3.80179">
        <ele>120.3</ele>
        <time>2014-12-14T08:37:40Z</time>
      </trkpt>
      <trkpt lat="50.32362" lon="3.80144">
        <ele>121.26</ele>
        <time>2014-12-14T08:38:55Z</time>
      </trkpt>
      <trkpt lat="50.32416" lon="3.80072">
        <ele>113.09</ele>
        <time>2014-12-14T08:40:38Z</time>
      </trkpt>
      <trkpt lat="50.32429" lon="3.79926">
        <ele>108.29</ele>
        <time>2014-12-14T08:41:56Z</time>
      </trkpt>
      <trkpt lat="50.32485" lon="3.79846">
        <ele>106.84</ele>
        <time>2014-12-14T08:43:55Z</time>
      </trkpt>
      <trkpt lat="50.32541" lon="3.79745">
        <ele>114.53</ele>
        <time>2014-12-14T08:45:10Z</time>
      </trkpt>
      <trkpt lat="50.32613" lon="3.79668">
        <ele>119.34</ele>
        <time>2014-12-14T08:46:39Z</time>
      </trkpt>
      <trkpt lat="50.32664" lon="3.79545">
        <ele>123.19</ele>
        <time>2014-12-14T08:48:14Z</time>
      </trkpt>
      <trkpt lat="50.32723" lon="3.79439">
        <ele>126.55</ele>
        <time>2014-12-14T08:49:39Z</time>
      </trkpt>
      <trkpt lat="50.3278" lon="3.79336">
        <ele>130.4</ele>
        <time>2014-12-14T08:51:11Z</time>
      </trkpt>
      <trkpt lat="50.32799" lon="3.79201">
        <ele>128.95</ele>
        <time>2014-12-14T08:52:53Z</time>
      </trkpt>
      <trkpt lat="50.3285" lon="3.7909">
        <ele>129.92</ele>
        <time>2014-12-14T08:54:27Z</time>
      </trkpt>
      <trkpt lat="50.32906" lon="3.78983">
        <ele>131.84</ele>
        <time>2014-12-14T08:55:56Z</time>
      </trkpt>
      <trkpt lat="50.32958" lon="3.78902">
        <ele>129.43</ele>
        <time>2014-12-14T08:57:14Z</time>
      </trkpt>
      <trkpt lat="50.33023" lon="3.78809">
        <ele>129.43</ele>
        <time>2014-12-14T08:58:39Z</time>
      </trkpt>
      <trkpt lat="50.33104" lon="3.78753">
        <ele>128.95</ele>
        <time>2014-12-14T09:00:22Z</time>
      </trkpt>
      <trkpt lat="50.33185" lon="3.78699">
        <ele>131.36</ele>
        <time>2014-12-14T09:01:37Z</time>
      </trkpt>
      <trkpt lat="50.33269" lon="3.78714">
        <ele>132.8</ele>
        <time>2014-12-14T09:02:47Z</time>
      </trkpt>
      <trkpt lat="50.33344" lon="3.78704">
        <ele>130.4</ele>
        <time>2014-12-14T09:03:59Z</time>
      </trkpt>
      <trkpt lat="50.33423" lon="3.78754">
        <ele>126.55</ele>
        <time>2014-12-14T09:05:11Z</time>
      </trkpt>
      <trkpt lat="50.33504" lon="3.78775">
        <ele>133.28</ele>
        <time>2014-12-14T09:06:21Z</time>
      </trkpt>
      <trkpt lat="50.33582" lon="3.78782">
        <ele>134.24</ele>
        <time>2014-12-14T09:07:21Z</time>
      </trkpt>
      <trkpt lat="50.3366" lon="3.78787">
        <ele>139.53</ele>
        <time>2014-12-14T09:08:26Z</time>
      </trkpt>
      <trkpt lat="50.33745" lon="3.78821">
        <ele>139.05</ele>
        <time>2014-12-14T09:09:42Z</time>
      </trkpt>
      <trkpt lat="50.33821" lon="3.78883">
        <ele>137.13</ele>
        <time>2014-12-14T09:11:10Z</time>
      </trkpt>
      <trkpt lat="50.33854" lon="3.78985">
        <ele>142.41</ele>
        <time>2014-12-14T09:12:14Z</time>
      </trkpt>
      <trkpt lat="50.33868" lon="3.79103">
        <ele>135.2</ele>
        <time>2014-12-14T09:13:33Z</time>
      </trkpt>
      <trkpt lat="50.33819" lon="3.79217">
        <ele>135.2</ele>
        <time>2014-12-14T09:14:48Z</time>
      </trkpt>
      <trkpt lat="50.3381" lon="3.79348">
        <ele>134.72</ele>
        <time>2014-12-14T09:16:07Z</time>
      </trkpt>
      <trkpt lat="50.33809" lon="3.79479">
        <ele>137.61</ele>
        <time>2014-12-14T09:17:14Z</time>
      </trkpt>
      <trkpt lat="50.33761" lon="3.79559">
        <ele>133.76</ele>
        <time>2014-12-14T09:18:34Z</time>
      </trkpt>
      <trkpt lat="50.33676" lon="3.79604">
        <ele>127.51</ele>
        <time>2014-12-14T09:19:49Z</time>
      </trkpt>
      <trkpt lat="50.3361" lon="3.79696">
        <ele>124.15</ele>
        <time>2014-12-14T09:21:13Z</time>
      </trkpt>
      <trkpt lat="50.33538" lon="3.79782">
        <ele>120.3</ele>
        <time>2014-12-14T09:23:15Z</time>
      </trkpt>
      <trkpt lat="50.33491" lon="3.79905">
        <ele>117.42</ele>
        <time>2014-12-14T09:24:42Z</time>
      </trkpt>
      <trkpt lat="50.33447" lon="3.80027">
        <ele>125.11</ele>
        <time>2014-12-14T09:26:02Z</time>
      </trkpt>
      <trkpt lat="50.33375" lon="3.80029">
        <ele>132.32</ele>
        <time>2014-12-14T09:27:25Z</time>
      </trkpt>
      <trkpt lat="50.33289" lon="3.79981">
        <ele>171.73</ele>
        <time>2014-12-14T09:28:56Z</time>
      </trkpt>
      <trkpt lat="50.33201" lon="3.79904">
        <ele>124.63</ele>
        <time>2014-12-14T09:30:17Z</time>
      </trkpt>
      <trkpt lat="50.33111" lon="3.79909">
        <ele>117.9</ele>
        <time>2014-12-14T09:31:31Z</time>
      </trkpt>
      <trkpt lat="50.33046" lon="3.7982">
        <ele>110.69</ele>
        <time>2014-12-14T09:32:49Z</time>
      </trkpt>
      <trkpt lat="50.32949" lon="3.7981">
        <ele>127.03</ele>
        <time>2014-12-14T09:34:10Z</time>
      </trkpt>
      <trkpt lat="50.3286" lon="3.79835">
        <ele>116.46</ele>
        <time>2014-12-14T09:35:22Z</time>
      </trkpt>
      <trkpt lat="50.32767" lon="3.79825">
        <ele>117.9</ele>
        <time>2014-12-14T09:36:42Z</time>
      </trkpt>
      <trkpt lat="50.32675" lon="3.79791">
        <ele>116.94</ele>
        <time>2014-12-14T09:37:55Z</time>
      </trkpt>
      <trkpt lat="50.32589" lon="3.79723">
        <ele>113.09</ele>
        <time>2014-12-14T09:39:16Z</time>
      </trkpt>
      <trkpt lat="50.32515" lon="3.7964">
        <ele>109.25</ele>
        <time>2014-12-14T09:40:26Z</time>
      </trkpt>
      <trkpt lat="50.32435" lon="3.7955">
        <ele>106.36</ele>
        <time>2014-12-14T09:41:42Z</time>
      </trkpt>
      <trkpt lat="50.32369" lon="3.79443">
        <ele>106.84</ele>
        <time>2014-12-14T09:43:04Z</time>
      </trkpt>
      <trkpt lat="50.32291" lon="3.79378">
        <ele>104.92</ele>
        <time>2014-12-14T09:44:31Z</time>
      </trkpt>
      <trkpt lat="50.32196" lon="3.7931">
        <ele>98.67</ele>
        <time>2014-12-14T09:45:53Z</time>
      </trkpt>
      <trkpt lat="50.32109" lon="3.79264">
        <ele>98.19</ele>
        <time>2014-12-14T09:47:06Z</time>
      </trkpt>
      <trkpt lat="50.32029" lon="3.79264">
        <ele>98.67</ele>
        <time>2014-12-14T09:48:24Z</time>
      </trkpt>
      <trkpt lat="50.31952" lon="3.79286">
        <ele>100.6</ele>
        <time>2014-12-14T09:49:54Z</time>
      </trkpt>
      <trkpt lat="50.31892" lon="3.79182">
        <ele>98.67</ele>
        <time>2014-12-14T09:51:11Z</time>
      </trkpt>
      <trkpt lat="50.31802" lon="3.79133">
        <ele>109.73</ele>
        <time>2014-12-14T09:52:33Z</time>
      </trkpt>
      <trkpt lat="50.3173" lon="3.79045">
        <ele>116.46</ele>
        <time>2014-12-14T09:53:52Z</time>
      </trkpt>
      <trkpt lat="50.31657" lon="3.78954">
        <ele>120.3</ele>
        <time>2014-12-14T09:55:08Z</time>
      </trkpt>
      <trkpt lat="50.31566" lon="3.78906">
        <ele>124.63</ele>
        <time>2014-12-14T09:56:28Z</time>
      </trkpt>
      <trkpt lat="50.31475" lon="3.78877">
        <ele>127.51</ele>
        <time>2014-12-14T09:57:44Z</time>
      </trkpt>
      <trkpt lat="50.31393" lon="3.78863">
        <ele>129.92</ele>
        <time>2014-12-14T09:59:07Z</time>
      </trkpt>
      <trkpt lat="50.31399" lon="3.78727">
        <ele>128.47</ele>
        <time>2014-12-14T10:00:20Z</time>
      </trkpt>
      <trkpt lat="50.31338" lon="3.78665">
        <ele>132.32</ele>
        <time>2014-12-14T10:01:44Z</time>
      </trkpt>
      <trkpt lat="50.31251" lon="3.78697">
        <ele>133.28</ele>
        <time>2014-12-14T10:03:02Z</time>
      </trkpt>
      <trkpt lat="50.31249" lon="3.78577">
        <ele>127.51</ele>
        <time>2014-12-14T10:04:35Z</time>
      </trkpt>
      <trkpt lat="50.31315" lon="3.78491">
        <ele>127.03</ele>
        <time>2014-12-14T10:05:55Z</time>
      </trkpt>
      <trkpt lat="50.31389" lon="3.78408">
        <ele>125.11</ele>
        <time>2014-12-14T10:07:10Z</time>
      </trkpt>
      <trkpt lat="50.31418" lon="3.78291">
        <ele>128.95</ele>
        <time>2014-12-14T10:09:06Z</time>
      </trkpt>
      <trkpt lat="50.31473" lon="3.78282">
        <ele>126.07</ele>
        <time>2014-12-14T10:09:57Z</time>
      </trkpt>
    </trkseg>
  </trk>
</gpx>